createdAt,value
2022-10-11T00:00:00.352Z,80
2022-10-11T00:10:00.378Z,80
2022-10-11T00:20:00.335Z,80
2022-10-11T00:30:00.352Z,80
2022-10-11T00:40:00.422Z,80
2022-10-11T00:50:00.355Z,80
2022-10-11T01:00:00.406Z,80
2022-10-11T01:10:00.313Z,80
2022-10-11T01:20:00.303Z,81
2022-10-11T01:30:00.354Z,82
2022-10-11T01:40:00.367Z,82
2022-10-11T01:50:00.463Z,82
2022-10-11T02:10:00.336Z,82
2022-10-11T02:20:00.367Z,82
2022-10-11T02:30:00.339Z,82
2022-10-11T02:40:00.538Z,82
2022-10-11T02:50:00.319Z,82
2022-10-11T03:00:00.301Z,82
2022-10-11T03:10:00.413Z,82
2022-10-11T03:20:00.329Z,82
2022-10-11T03:30:00.405Z,82
2022-10-11T03:40:00.348Z,82
2022-10-11T03:50:00.361Z,82
2022-10-11T04:00:00.312Z,82
2022-10-11T04:10:00.325Z,82
2022-10-11T04:20:00.378Z,82
2022-10-11T04:30:00.378Z,83
2022-10-11T04:40:00.341Z,83
2022-10-11T04:50:00.335Z,83
2022-10-11T05:00:00.347Z,83
2022-10-11T05:10:00.366Z,83
2022-10-11T05:20:00.352Z,83
2022-10-11T05:30:00.409Z,83
2022-10-11T05:40:00.310Z,83
2022-10-11T05:50:00.325Z,83
2022-10-11T06:00:00.337Z,83
2022-10-11T06:10:00.331Z,84
2022-10-11T06:20:00.340Z,83
2022-10-11T06:30:00.400Z,84
2022-10-11T06:40:00.336Z,84
2022-10-11T06:50:00.352Z,84
2022-10-11T07:00:00.348Z,84
2022-10-11T07:10:00.339Z,84
2022-10-11T07:20:00.306Z,85
2022-10-11T07:30:00.347Z,85
2022-10-11T07:40:00.409Z,84
2022-10-11T07:50:00.538Z,85
2022-10-11T08:00:00.382Z,84
2022-10-11T08:10:00.357Z,84
2022-10-11T08:20:00.376Z,83
2022-10-11T08:30:00.401Z,82
2022-10-11T08:40:00.389Z,82
2022-10-11T08:50:00.396Z,82
2022-10-11T09:00:00.332Z,81
2022-10-11T09:10:00.312Z,81
2022-10-11T09:20:00.425Z,80
2022-10-11T09:30:00.321Z,79
2022-10-11T09:40:00.676Z,77
2022-10-11T09:50:00.337Z,78
2022-10-11T10:00:00.467Z,78
2022-10-11T10:10:00.344Z,76
2022-10-11T10:20:00.349Z,76
2022-10-11T10:30:00.375Z,74
2022-10-11T10:40:00.332Z,73
2022-10-11T10:50:00.362Z,73
2022-10-11T11:00:00.369Z,70
2022-10-11T11:10:00.400Z,71
2022-10-11T11:20:00.339Z,68
2022-10-11T11:30:00.335Z,67
2022-10-11T11:40:00.314Z,68
2022-10-11T11:50:00.363Z,67
2022-10-11T12:00:00.403Z,67
2022-10-11T12:10:00.404Z,66
2022-10-11T12:20:00.380Z,64
2022-10-11T12:30:00.356Z,66
2022-10-11T12:40:00.366Z,66
2022-10-11T12:50:00.340Z,66
2022-10-11T13:00:00.548Z,67
2022-10-11T13:10:00.374Z,67
2022-10-11T13:20:00.361Z,67
2022-10-11T13:30:00.427Z,67
2022-10-11T13:40:00.330Z,67
2022-10-11T13:50:00.340Z,66
2022-10-11T14:00:00.367Z,67
2022-10-11T14:10:00.335Z,67
2022-10-11T14:20:10.273Z,66
2022-10-11T14:30:24.871Z,66
2022-10-11T14:40:00.365Z,66
2022-10-11T14:50:00.314Z,66
2022-10-11T15:00:00.326Z,67
2022-10-11T15:10:00.335Z,67
2022-10-11T15:20:00.823Z,68
2022-10-11T15:30:00.339Z,68
2022-10-11T15:40:00.569Z,69
2022-10-11T15:50:00.609Z,70
2022-10-11T16:00:00.389Z,70
2022-10-11T16:10:00.336Z,71
2022-10-11T16:20:00.381Z,71
2022-10-11T16:30:00.335Z,72
2022-10-11T16:40:00.353Z,72
2022-10-11T16:50:00.330Z,73
2022-10-11T17:00:00.389Z,73
2022-10-11T17:10:00.353Z,74
2022-10-11T17:20:00.338Z,74
2022-10-11T17:30:00.343Z,74
2022-10-11T17:40:00.373Z,75
2022-10-11T17:50:00.319Z,76
2022-10-11T18:00:00.363Z,76
2022-10-11T18:10:00.400Z,77
2022-10-11T18:20:00.341Z,77
2022-10-11T18:30:00.399Z,78
2022-10-11T18:40:00.309Z,78
2022-10-11T18:50:00.314Z,78
2022-10-11T19:00:22.542Z,78
2022-10-11T19:10:00.387Z,78
2022-10-11T19:20:00.411Z,79
2022-10-11T19:30:00.392Z,79
2022-10-11T19:40:00.375Z,79
2022-10-11T19:50:00.357Z,79
2022-10-11T20:00:00.383Z,80
2022-10-11T20:10:00.322Z,80
2022-10-11T20:20:00.309Z,80
2022-10-11T20:30:00.479Z,80
2022-10-11T20:40:00.341Z,80
2022-10-11T20:50:00.377Z,80
2022-10-11T21:00:00.384Z,80
2022-10-11T21:10:00.389Z,80
2022-10-11T21:20:00.384Z,80
2022-10-11T21:30:00.848Z,80
2022-10-11T21:40:00.424Z,80
2022-10-11T21:50:00.386Z,81
2022-10-11T22:00:00.414Z,81
2022-10-11T22:10:00.378Z,81
2022-10-11T22:20:00.354Z,81
2022-10-11T22:30:00.374Z,81
2022-10-11T22:40:00.395Z,81
2022-10-11T22:50:00.384Z,81
2022-10-11T23:00:00.604Z,82
2022-10-11T23:10:00.327Z,82
2022-10-11T23:20:00.528Z,82
2022-10-11T23:30:00.334Z,82
2022-10-11T23:40:00.365Z,82
2022-10-11T23:50:00.414Z,82
